createdAt,value
2023-09-20T00:03:01.496Z,100251.62
2023-09-20T00:18:05.878Z,100247.35
2023-09-20T00:33:09.636Z,100252.41
2023-09-20T00:48:15.129Z,100254.66
2023-09-20T01:03:20.442Z,100258.77
2023-09-20T01:18:24.740Z,100265.02
2023-09-20T01:33:28.937Z,100258.50
2023-09-20T01:48:33.539Z,100245.89
2023-09-20T02:03:41.450Z,100246.14
2023-09-20T02:18:47.269Z,100245.45
2023-09-20T02:33:51.016Z,100248.91
2023-09-20T02:48:54.740Z,100256.23
2023-09-20T03:03:58.555Z,100263.31
2023-09-20T03:19:02.442Z,100255.38
2023-09-20T03:34:07.164Z,100255.76
2023-09-20T03:49:12.006Z,100253.85
2023-09-20T04:04:17.795Z,100254.88
2023-09-20T04:19:22.637Z,100258.55
2023-09-20T04:34:26.380Z,100272.13
2023-09-20T04:49:30.469Z,100271.73
2023-09-20T05:04:35.900Z,100276.56
2023-09-20T05:19:40.920Z,100269.54
2023-09-20T05:34:47.467Z,100276.66
2023-09-20T05:49:51.215Z,100287.27
2023-09-20T06:04:54.986Z,100283.68
2023-09-20T06:20:02.658Z,100301.60
2023-09-20T06:35:09.307Z,100303.91
2023-09-20T06:50:14.683Z,100315.59
2023-09-20T07:05:19.269Z,100327.56
2023-09-20T07:20:25.675Z,100331.27
2023-09-20T07:35:41.036Z,100341.59
2023-09-20T07:50:50.646Z,100339.69
2023-09-20T08:05:56.464Z,100339.45
2023-09-20T08:21:00.601Z,100337.80
2023-09-20T08:36:24.644Z,100341.06
2023-09-20T08:52:30.542Z,100334.92
2023-09-20T09:07:34.444Z,100342.11
2023-09-20T09:22:40.050Z,100342.02
2023-09-20T09:37:45.303Z,100341.23
2023-09-20T09:52:52.122Z,100328.71
2023-09-20T10:08:04.397Z,100326.06
2023-09-20T10:23:12.793Z,100324.91
2023-09-20T10:38:27.818Z,100318.66
2023-09-20T10:53:57.361Z,100314.59
2023-09-20T11:09:01.520Z,100300.27
2023-09-20T11:24:07.675Z,100288.50
2023-09-20T11:39:24.163Z,100274.46
2023-09-20T11:54:39.348Z,100267.62
2023-09-20T12:09:44.782Z,100256.71
2023-09-20T12:24:48.700Z,100248.95
2023-09-20T12:39:54.034Z,100243.55
2023-09-20T12:54:57.851Z,100234.14
2023-09-20T13:10:02.732Z,100223.95
2023-09-20T13:25:10.177Z,100217.07
2023-09-20T13:40:19.686Z,100198.09
2023-09-20T13:55:32.133Z,100205.80
2023-09-20T14:10:37.479Z,100194.34
2023-09-20T14:25:41.604Z,100191.63
2023-09-20T14:40:45.465Z,100182.12
2023-09-20T14:55:51.092Z,100171.98
2023-09-20T15:10:55.030Z,100170.80
2023-09-20T15:26:13.292Z,100174.48
2023-09-20T15:41:17.033Z,100177.05
2023-09-20T15:56:21.451Z,100185.54
2023-09-20T16:11:25.494Z,100184.92
2023-09-20T16:26:30.467Z,100182.52
2023-09-20T16:41:34.911Z,100180.73
2023-09-20T16:56:38.798Z,100183.33
2023-09-20T17:11:43.725Z,100179.44
2023-09-20T17:26:47.550Z,100182.20
2023-09-20T17:41:51.889Z,100176.69
2023-09-20T17:56:58.713Z,100178.24
2023-09-20T18:12:03.395Z,100185.70
2023-09-20T18:27:07.761Z,100194.81
2023-09-20T18:42:13.161Z,100198.54
2023-09-20T18:57:23.358Z,100194.94
2023-09-20T19:12:27.420Z,100197.01
2023-09-20T19:27:31.390Z,100198.38
2023-09-20T19:42:38.425Z,100195.66
2023-09-20T19:57:43.137Z,100194.66
2023-09-20T20:12:47.959Z,100193.91
2023-09-20T20:27:56.881Z,100177.65
2023-09-20T20:43:00.924Z,100175.29
2023-09-20T20:58:13.759Z,100166.98
2023-09-20T21:13:18.157Z,100161.01
2023-09-20T21:28:22.223Z,100152.34
2023-09-20T21:43:26.062Z,100137.77
2023-09-20T21:58:29.932Z,100128.23
2023-09-20T22:13:34.905Z,100138.27
2023-09-20T22:28:38.888Z,100129.05
2023-09-20T22:43:42.843Z,100117.50
2023-09-20T22:58:47.750Z,100114.79
2023-09-20T23:13:51.481Z,100105.84
2023-09-20T23:28:55.507Z,100096.77
2023-09-20T23:43:59.193Z,100095.30
2023-09-20T23:59:03.289Z,100085.48
